Time;durP1;ratioP1;P1;durP2;ratioP2;P2;SDS_P1;SDS_P2;PMS_P1;PMS_P2;Temp;Humidity;BMP_temperature;BMP_pressure;BME280_temperature;BME280_humidity;BME280_pressure;Samples;Min_cycle;Max_cycle;Signal;HPM_P1;HPM_P2
2021/09/10 00:01:34;;;;;;;45.00;36.45;;;;;;;;;;5075806;28;20021;-71
2021/09/10 00:04:03;;;;;;;49.80;35.53;;;;;;;;;;5074779;28;20063;-71
2021/09/10 00:06:30;;;;;;;46.45;33.00;;;;;;;;;;5092936;28;20479;-71
2021/09/10 00:08:57;;;;;;;41.88;31.23;;;;;;;;;;5082705;28;20032;-71
2021/09/10 00:11:23;;;;;;;44.45;33.13;;;;;;;;;;5077577;28;20063;-71
2021/09/10 00:13:49;;;;;;;41.20;31.50;;;;;;;;;;5090244;28;20070;-71
2021/09/10 00:16:15;;;;;;;45.10;32.88;;;;;;;;;;5082039;28;20078;-71
2021/09/10 00:18:41;;;;;;;41.67;32.60;;;;;;;;;;5070400;28;20086;-71
2021/09/10 00:21:07;;;;;;;46.15;31.75;;;;;;;;;;5072789;28;20078;-71
2021/09/10 00:23:33;;;;;;;44.42;32.80;;;;;;;;;;5074394;28;20021;-71
2021/09/10 00:26:00;;;;;;;42.13;31.95;;;;;;;;;;5091935;28;20012;-71
2021/09/10 00:28:26;;;;;;;48.85;33.53;;;;;;;;;;5091662;28;20482;-71
2021/09/10 00:30:52;;;;;;;41.25;29.85;;;;;;;;;;5076260;28;20021;-71
2021/09/10 00:33:18;;;;;;;43.85;31.65;;;;;;;;;;5078888;28;20052;-71
2021/09/10 00:35:45;;;;;;;39.80;30.00;;;;;;;;;;5086783;28;20425;-71
2021/09/10 00:38:11;;;;;;;39.38;29.45;;;;;;;;;;5079969;28;20421;-71
2021/09/10 00:40:37;;;;;;;41.75;29.98;;;;;;;;;;5084200;28;20058;-71
2021/09/10 00:43:03;;;;;;;41.67;29.52;;;;;;;;;;5093736;28;20036;-71
2021/09/10 00:45:29;;;;;;;44.80;32.17;;;;;;;;;;5088305;28;20065;-71
2021/09/10 00:47:56;;;;;;;42.38;28.38;;;;;;;;;;5092300;28;20024;-71
2021/09/10 00:50:22;;;;;;;44.65;31.55;;;;;;;;;;5080125;28;20068;-71
2021/09/10 00:52:48;;;;;;;42.80;30.45;;;;;;;;;;5080430;28;20119;-72
2021/09/10 00:55:15;;;;;;;42.20;30.98;;;;;;;;;;5087790;28;20044;-71
2021/09/10 00:57:41;;;;;;;46.17;32.13;;;;;;;;;;5086038;28;20028;-71
2021/09/10 01:00:08;;;;;;;47.63;32.38;;;;;;;;;;5087506;28;20036;-71
2021/09/10 01:02:34;;;;;;;48.17;33.65;;;;;;;;;;5077273;28;20505;-71
2021/09/10 01:05:00;;;;;;;47.88;34.83;;;;;;;;;;5093739;28;20028;-71
2021/09/10 01:07:26;;;;;;;53.03;34.53;;;;;;;;;;5080531;28;20043;-71
2021/09/10 01:09:52;;;;;;;50.78;35.30;;;;;;;;;;5084138;28;20029;-71
2021/09/10 01:12:18;;;;;;;51.17;35.13;;;;;;;;;;5092482;28;20032;-71
2021/09/10 01:14:45;;;;;;;54.55;34.83;;;;;;;;;;5083656;28;20084;-71
2021/09/10 01:17:11;;;;;;;52.28;34.22;;;;;;;;;;5079106;28;20031;-71
2021/09/10 01:19:38;;;;;;;50.97;35.67;;;;;;;;;;5086082;28;20024;-71
2021/09/10 01:22:05;;;;;;;51.58;34.65;;;;;;;;;;5077769;28;20502;-71
2021/09/10 01:24:32;;;;;;;50.17;34.47;;;;;;;;;;5085616;28;20025;-71
2021/09/10 01:26:59;;;;;;;50.67;34.70;;;;;;;;;;5088875;28;20020;-71
2021/09/10 01:29:25;;;;;;;57.22;37.05;;;;;;;;;;5090585;28;20036;-71
2021/09/10 01:31:52;;;;;;;59.10;39.17;;;;;;;;;;5076075;28;20070;-71
2021/09/10 01:34:19;;;;;;;57.05;37.10;;;;;;;;;;5077229;28;20044;-71
2021/09/10 01:36:45;;;;;;;54.53;37.70;;;;;;;;;;5091650;28;20028;-71
2021/09/10 01:39:11;;;;;;;55.58;37.55;;;;;;;;;;5075465;28;20082;-71
2021/09/10 01:41:37;;;;;;;48.30;34.38;;;;;;;;;;5072960;28;20032;-71
2021/09/10 01:44:03;;;;;;;56.20;36.08;;;;;;;;;;5081869;28;20016;-71
2021/09/10 01:46:29;;;;;;;58.17;37.53;;;;;;;;;;5091335;28;20097;-71
2021/09/10 01:48:55;;;;;;;52.53;36.10;;;;;;;;;;5091982;28;20058;-71
2021/09/10 01:51:28;;;;;;;57.55;36.60;;;;;;;;;;5085132;28;20489;-71
2021/09/10 01:53:54;;;;;;;60.47;38.80;;;;;;;;;;5085561;28;20059;-72
2021/09/10 01:56:20;;;;;;;55.58;35.58;;;;;;;;;;5094657;28;20031;-70
2021/09/10 01:58:46;;;;;;;57.05;36.47;;;;;;;;;;5089366;28;20024;-71
2021/09/10 02:01:12;;;;;;;52.10;37.17;;;;;;;;;;5084104;28;20047;-71
2021/09/10 02:03:38;;;;;;;63.70;39.42;;;;;;;;;;5084838;28;20401;-71
2021/09/10 02:06:04;;;;;;;56.67;36.42;;;;;;;;;;5089910;28;20493;-71
2021/09/10 02:08:30;;;;;;;58.83;38.67;;;;;;;;;;5089410;28;20028;-71
2021/09/10 02:10:56;;;;;;;57.53;37.97;;;;;;;;;;5087612;28;20081;-71
2021/09/10 02:13:22;;;;;;;55.58;37.97;;;;;;;;;;5089583;28;20036;-71
2021/09/10 02:15:49;;;;;;;61.90;39.55;;;;;;;;;;5085233;28;20058;-71
2021/09/10 02:18:15;;;;;;;56.67;39.13;;;;;;;;;;5074576;28;20020;-71
2021/09/10 02:20:41;;;;;;;60.15;38.40;;;;;;;;;;5083096;28;20017;-71
2021/09/10 02:23:07;;;;;;;59.05;38.50;;;;;;;;;;5084516;28;20039;-71
2021/09/10 02:25:33;;;;;;;59.03;40.33;;;;;;;;;;5077888;28;20032;-71
2021/09/10 02:27:59;;;;;;;59.03;39.33;;;;;;;;;;5070627;28;20047;-71
2021/09/10 02:30:25;;;;;;;66.32;42.50;;;;;;;;;;5088248;28;20100;-71
2021/09/10 02:32:51;;;;;;;59.00;41.30;;;;;;;;;;5076035;28;20043;-71
2021/09/10 02:35:17;;;;;;;65.10;42.38;;;;;;;;;;5083545;28;20131;-71
2021/09/10 02:37:43;;;;;;;62.42;42.05;;;;;;;;;;5090531;28;20103;-71
2021/09/10 02:40:09;;;;;;;67.20;43.55;;;;;;;;;;5081320;28;20025;-71
2021/09/10 02:42:35;;;;;;;59.65;41.75;;;;;;;;;;5085637;28;20020;-71
2021/09/10 02:45:02;;;;;;;63.63;42.33;;;;;;;;;;5090132;28;20032;-71
2021/09/10 02:47:30;;;;;;;68.72;44.53;;;;;;;;;;5090510;28;20032;-71
2021/09/10 02:49:56;;;;;;;72.05;44.80;;;;;;;;;;5084169;28;20031;-71
2021/09/10 02:52:22;;;;;;;72.25;44.78;;;;;;;;;;5073143;28;20028;-71
2021/09/10 02:54:48;;;;;;;65.80;43.65;;;;;;;;;;5083659;28;20055;-72
2021/09/10 02:57:14;;;;;;;64.68;43.58;;;;;;;;;;5081584;28;20032;-71
2021/09/10 02:59:40;;;;;;;66.30;45.00;;;;;;;;;;5072649;28;20031;-71
2021/09/10 03:02:06;;;;;;;61.05;42.65;;;;;;;;;;5071210;28;20028;-71
2021/09/10 03:04:32;;;;;;;65.90;44.03;;;;;;;;;;5085749;28;20030;-71
2021/09/10 03:06:58;;;;;;;63.70;42.28;;;;;;;;;;5098409;28;20103;-71
2021/09/10 03:09:24;;;;;;;66.00;43.33;;;;;;;;;;5084860;28;20108;-71
2021/09/10 03:11:50;;;;;;;64.57;42.55;;;;;;;;;;5080641;28;20028;-71
2021/09/10 03:14:16;;;;;;;60.40;40.90;;;;;;;;;;5090632;28;20032;-71
2021/09/10 03:16:43;;;;;;;63.45;41.78;;;;;;;;;;5089457;28;20020;-71
2021/09/10 03:19:09;;;;;;;69.55;41.95;;;;;;;;;;5082261;28;20025;-71
2021/09/10 03:21:35;;;;;;;59.42;41.90;;;;;;;;;;5070338;28;20021;-71
2021/09/10 03:24:02;;;;;;;61.60;40.55;;;;;;;;;;5080698;28;20028;-71
2021/09/10 03:26:28;;;;;;;61.10;41.72;;;;;;;;;;5070898;28;20397;-71
2021/09/10 03:28:54;;;;;;;63.38;41.70;;;;;;;;;;5084528;28;20026;-71
2021/09/10 03:31:20;;;;;;;58.00;39.75;;;;;;;;;;5090892;28;20031;-71
2021/09/10 03:33:46;;;;;;;64.45;42.63;;;;;;;;;;5076053;28;20028;-71
2021/09/10 03:36:12;;;;;;;67.20;39.22;;;;;;;;;;5102200;28;20028;-71
2021/09/10 03:38:38;;;;;;;55.55;39.17;;;;;;;;;;5078774;28;20111;-71
2021/09/10 03:41:04;;;;;;;60.88;39.03;;;;;;;;;;5081690;28;20045;-71
2021/09/10 03:43:30;;;;;;;57.72;38.38;;;;;;;;;;5088494;28;20016;-71
2021/09/10 03:45:56;;;;;;;60.15;40.75;;;;;;;;;;5089910;28;20028;-71
2021/09/10 03:48:22;;;;;;;58.20;39.60;;;;;;;;;;5088796;28;20028;-72
2021/09/10 03:50:48;;;;;;;58.97;38.67;;;;;;;;;;5075716;28;20043;-71
2021/09/10 03:53:14;;;;;;;65.85;38.97;;;;;;;;;;5079175;28;20028;-72
2021/09/10 03:55:40;;;;;;;56.60;37.13;;;;;;;;;;5091205;28;20028;-71
2021/09/10 03:58:06;;;;;;;62.45;40.17;;;;;;;;;;5082022;28;20016;-71
2021/09/10 04:00:32;;;;;;;61.22;39.40;;;;;;;;;;5094770;28;20016;-71
2021/09/10 04:03:03;;;;;;;59.83;38.28;;;;;;;;;;5084339;28;20078;-71
2021/09/10 04:05:29;;;;;;;59.92;39.63;;;;;;;;;;5094043;28;20024;-71
2021/09/10 04:07:55;;;;;;;58.85;37.78;;;;;;;;;;5091401;28;20031;-71
2021/09/10 04:10:21;;;;;;;59.08;38.53;;;;;;;;;;5075135;28;20032;-71
2021/09/10 04:12:47;;;;;;;65.53;39.28;;;;;;;;;;5080860;28;20028;-71
2021/09/10 04:15:13;;;;;;;59.10;36.90;;;;;;;;;;5082154;28;20040;-71
2021/09/10 04:17:39;;;;;;;55.53;36.53;;;;;;;;;;5091111;28;20039;-71
2021/09/10 04:20:05;;;;;;;55.85;34.17;;;;;;;;;;5080017;28;20016;-71
2021/09/10 04:22:31;;;;;;;53.53;34.67;;;;;;;;;;5078561;28;20493;-71
2021/09/10 04:24:57;;;;;;;57.85;34.47;;;;;;;;;;5080037;28;20039;-71
2021/09/10 04:27:23;;;;;;;55.30;34.30;;;;;;;;;;5079176;28;20028;-71
2021/09/10 04:29:49;;;;;;;58.08;34.50;;;;;;;;;;5093253;28;20028;-71
2021/09/10 04:32:15;;;;;;;53.28;33.00;;;;;;;;;;5080816;28;20039;-71
2021/09/10 04:34:41;;;;;;;45.75;30.80;;;;;;;;;;5086423;28;20032;-71
2021/09/10 04:37:07;;;;;;;44.65;30.30;;;;;;;;;;5086072;28;20046;-71
2021/09/10 04:39:34;;;;;;;48.08;30.98;;;;;;;;;;5090989;28;20020;-71
2021/09/10 04:42:00;;;;;;;44.53;31.17;;;;;;;;;;5097240;28;20020;-71
2021/09/10 04:44:26;;;;;;;45.65;30.02;;;;;;;;;;5077779;28;20035;-71
2021/09/10 04:46:52;;;;;;;44.08;28.67;;;;;;;;;;5083226;28;20028;-72
2021/09/10 04:49:18;;;;;;;37.80;27.48;;;;;;;;;;5073303;28;20030;-71
2021/09/10 04:51:44;;;;;;;40.90;27.58;;;;;;;;;;5087604;28;20032;-71
2021/09/10 04:54:14;;;;;;;40.95;26.98;;;;;;;;;;5085070;28;20363;-71
2021/09/10 04:56:41;;;;;;;37.60;25.02;;;;;;;;;;5094333;28;20055;-72
2021/09/10 04:59:07;;;;;;;41.65;25.48;;;;;;;;;;5080352;28;20019;-71
2021/09/10 05:01:33;;;;;;;37.72;23.63;;;;;;;;;;5088451;28;20025;-71
2021/09/10 05:03:59;;;;;;;34.40;23.58;;;;;;;;;;5077309;28;20028;-71
2021/09/10 05:06:25;;;;;;;39.28;23.45;;;;;;;;;;5085441;28;20024;-71
2021/09/10 05:08:51;;;;;;;37.78;23.55;;;;;;;;;;5083885;28;20050;-72
2021/09/10 05:11:17;;;;;;;38.38;24.73;;;;;;;;;;5086174;28;20020;-71
2021/09/10 05:13:43;;;;;;;35.00;23.15;;;;;;;;;;5086773;28;20081;-71
2021/09/10 05:16:09;;;;;;;37.70;23.27;;;;;;;;;;5075464;28;20025;-72
2021/09/10 05:18:35;;;;;;;35.25;22.27;;;;;;;;;;5083695;28;20551;-71
2021/09/10 05:21:01;;;;;;;37.60;21.95;;;;;;;;;;5089655;28;20077;-71
2021/09/10 05:23:27;;;;;;;38.55;21.73;;;;;;;;;;5088640;28;20020;-71
2021/09/10 05:25:54;;;;;;;32.47;21.75;;;;;;;;;;5078323;28;20469;-71
2021/09/10 05:28:20;;;;;;;33.10;21.73;;;;;;;;;;5092150;28;20031;-71
2021/09/10 05:30:47;;;;;;;33.20;19.70;;;;;;;;;;5087797;28;20131;-71
2021/09/10 05:33:13;;;;;;;35.00;19.85;;;;;;;;;;5082646;28;20055;-72
2021/09/10 05:35:39;;;;;;;28.02;19.73;;;;;;;;;;5073133;28;20064;-71
2021/09/10 05:38:05;;;;;;;30.38;20.05;;;;;;;;;;5071856;28;20048;-71
2021/09/10 05:40:31;;;;;;;31.55;19.55;;;;;;;;;;5072993;28;20016;-71
2021/09/10 05:42:57;;;;;;;29.10;18.92;;;;;;;;;;5083106;28;20031;-71
2021/09/10 05:45:23;;;;;;;31.17;18.63;;;;;;;;;;5090980;28;20040;-71
2021/09/10 05:47:49;;;;;;;33.38;23.05;;;;;;;;;;5088293;28;20078;-71
2021/09/10 05:50:15;;;;;;;32.85;20.15;;;;;;;;;;5082778;28;20036;-72
2021/09/10 05:52:41;;;;;;;25.83;17.92;;;;;;;;;;5078321;28;20031;-72
2021/09/10 05:55:08;;;;;;;25.98;18.08;;;;;;;;;;5084575;28;20456;-71
2021/09/10 05:57:34;;;;;;;31.15;18.17;;;;;;;;;;5074142;28;20122;-72
2021/09/10 06:00:00;;;;;;;30.63;19.15;;;;;;;;;;5097970;28;20020;-72
2021/09/10 06:02:26;;;;;;;27.63;17.55;;;;;;;;;;5085906;28;20028;-71
2021/09/10 06:04:52;;;;;;;28.35;18.67;;;;;;;;;;5091591;28;20027;-71
2021/09/10 06:07:18;;;;;;;23.83;16.45;;;;;;;;;;5089477;28;20127;-72
2021/09/10 06:09:44;;;;;;;27.95;17.73;;;;;;;;;;5092550;28;20064;-71
2021/09/10 06:12:10;;;;;;;28.52;17.92;;;;;;;;;;5088947;28;20042;-71
2021/09/10 06:14:36;;;;;;;28.75;18.25;;;;;;;;;;5090992;28;20545;-71
2021/09/10 06:17:02;;;;;;;29.20;17.58;;;;;;;;;;5089672;28;20481;-71
2021/09/10 06:19:28;;;;;;;29.80;17.98;;;;;;;;;;5090535;28;20020;-72
2021/09/10 06:21:54;;;;;;;27.33;18.42;;;;;;;;;;5087128;28;20023;-72
2021/09/10 06:24:20;;;;;;;31.10;18.60;;;;;;;;;;5090347;28;20031;-71
2021/09/10 06:26:46;;;;;;;32.28;17.85;;;;;;;;;;5085966;28;20032;-71
2021/09/10 06:29:12;;;;;;;26.10;17.52;;;;;;;;;;5091663;28;20028;-71
2021/09/10 06:31:42;;;;;;;27.45;18.52;;;;;;;;;;5091982;28;20052;-72
2021/09/10 06:34:08;;;;;;;30.92;19.08;;;;;;;;;;5091859;28;20421;-72
2021/09/10 06:36:35;;;;;;;27.35;17.65;;;;;;;;;;5090223;28;20028;-71
2021/09/10 06:39:01;;;;;;;26.60;16.63;;;;;;;;;;5091498;28;20045;-71
2021/09/10 06:41:27;;;;;;;29.35;18.35;;;;;;;;;;5091740;28;20093;-71
2021/09/10 06:43:53;;;;;;;23.05;16.48;;;;;;;;;;5091862;28;20089;-72
2021/09/10 06:46:19;;;;;;;25.83;16.98;;;;;;;;;;5090212;28;20028;-71
2021/09/10 06:48:45;;;;;;;30.30;17.35;;;;;;;;;;5086334;28;20110;-72
2021/09/10 06:51:11;;;;;;;27.20;17.38;;;;;;;;;;5079751;28;20073;-72
2021/09/10 06:53:37;;;;;;;29.33;17.40;;;;;;;;;;5071407;28;20028;-72
2021/09/10 06:56:03;;;;;;;29.83;16.88;;;;;;;;;;5079094;28;20558;-71
2021/09/10 06:58:31;;;;;;;28.17;17.65;;;;;;;;;;5091580;28;20633;-72
2021/09/10 07:00:57;;;;;;;28.77;17.00;;;;;;;;;;5091315;28;20013;-72
2021/09/10 07:03:23;;;;;;;24.38;17.35;;;;;;;;;;5091626;28;20024;-72
2021/09/10 07:05:49;;;;;;;30.40;17.30;;;;;;;;;;5090620;28;20034;-72
2021/09/10 07:08:16;;;;;;;26.48;15.95;;;;;;;;;;5087536;28;20047;-72
2021/09/10 07:10:42;;;;;;;28.90;18.55;;;;;;;;;;5090923;28;20024;-72
2021/09/10 07:13:08;;;;;;;30.05;18.35;;;;;;;;;;5085459;28;20149;-71
2021/09/10 07:15:34;;;;;;;25.83;16.15;;;;;;;;;;5076924;28;20493;-71
2021/09/10 07:18:00;;;;;;;36.90;18.60;;;;;;;;;;5089524;28;20398;-72
2021/09/10 07:20:26;;;;;;;28.27;18.08;;;;;;;;;;5090888;28;20081;-71
2021/09/10 07:22:52;;;;;;;26.58;16.25;;;;;;;;;;5105323;28;20020;-71
2021/09/10 07:25:18;;;;;;;23.23;16.27;;;;;;;;;;5090788;28;20012;-72
2021/09/10 07:27:44;;;;;;;24.05;16.30;;;;;;;;;;5078623;28;20037;-71
2021/09/10 07:30:10;;;;;;;30.30;15.85;;;;;;;;;;5090527;28;20091;-72
2021/09/10 07:32:36;;;;;;;27.60;16.52;;;;;;;;;;5091139;28;20043;-72
2021/09/10 07:35:02;;;;;;;23.38;16.05;;;;;;;;;;5084164;28;20093;-71
2021/09/10 07:37:30;;;;;;;28.00;18.02;;;;;;;;;;5089103;28;20044;-72
2021/09/10 07:39:56;;;;;;;28.52;17.67;;;;;;;;;;5088923;28;20127;-72
2021/09/10 07:42:22;;;;;;;24.98;16.38;;;;;;;;;;5090717;28;20016;-72
2021/09/10 07:44:49;;;;;;;25.83;17.45;;;;;;;;;;5090525;28;20024;-72
2021/09/10 07:47:15;;;;;;;25.92;17.98;;;;;;;;;;5088156;28;20021;-71
2021/09/10 07:49:42;;;;;;;24.05;16.60;;;;;;;;;;5089230;28;20486;-72
2021/09/10 07:52:08;;;;;;;28.58;18.13;;;;;;;;;;5090730;28;20024;-71
2021/09/10 07:54:34;;;;;;;28.38;18.13;;;;;;;;;;5090591;28;20047;-71
2021/09/10 07:57:00;;;;;;;27.90;18.40;;;;;;;;;;5086132;28;20029;-71
2021/09/10 07:59:26;;;;;;;23.88;18.48;;;;;;;;;;5090163;28;20543;-71
2021/09/10 08:01:52;;;;;;;27.33;17.80;;;;;;;;;;5089501;28;20024;-71
2021/09/10 08:04:18;;;;;;;29.70;17.83;;;;;;;;;;5090885;28;20004;-72
2021/09/10 08:06:44;;;;;;;30.20;19.50;;;;;;;;;;5084330;28;20037;-72
2021/09/10 08:09:10;;;;;;;30.52;19.83;;;;;;;;;;5090145;28;20069;-72
2021/09/10 08:11:37;;;;;;;24.83;18.35;;;;;;;;;;5088836;28;20382;-72
2021/09/10 08:14:07;;;;;;;27.75;17.63;;;;;;;;;;5090425;28;20099;-71
2021/09/10 08:16:33;;;;;;;27.23;18.67;;;;;;;;;;5086057;28;20028;-72
2021/09/10 08:18:59;;;;;;;26.33;18.52;;;;;;;;;;5090062;28;20103;-71
2021/09/10 08:21:25;;;;;;;31.65;18.73;;;;;;;;;;5090446;28;20020;-71
2021/09/10 08:23:51;;;;;;;27.60;17.83;;;;;;;;;;5089287;28;20553;-70
2021/09/10 08:26:17;;;;;;;24.88;17.85;;;;;;;;;;5086640;28;20093;-71
2021/09/10 08:28:44;;;;;;;26.92;18.55;;;;;;;;;;5070256;28;20394;-71
2021/09/10 08:31:11;;;;;;;26.77;18.58;;;;;;;;;;5076844;28;20028;-71
2021/09/10 08:33:37;;;;;;;30.10;18.05;;;;;;;;;;5084564;28;20044;-71
2021/09/10 08:36:03;;;;;;;27.23;18.85;;;;;;;;;;5095317;28;20425;-71
2021/09/10 08:38:29;;;;;;;30.63;18.70;;;;;;;;;;5090339;28;20024;-71
2021/09/10 08:40:57;;;;;;;29.45;19.42;;;;;;;;;;5089727;28;20609;-71
2021/09/10 08:43:25;;;;;;;30.73;19.48;;;;;;;;;;5093318;28;20028;-72
2021/09/10 08:45:51;;;;;;;32.78;20.13;;;;;;;;;;5091749;28;20570;-70
2021/09/10 08:48:18;;;;;;;35.38;20.45;;;;;;;;;;5091974;28;20285;-71
2021/09/10 08:50:46;;;;;;;34.00;21.98;;;;;;;;;;5092826;28;20027;-71
2021/09/10 08:53:12;;;;;;;38.25;24.15;;;;;;;;;;5092056;28;20097;-71
2021/09/10 08:55:38;;;;;;;40.10;25.13;;;;;;;;;;5092699;28;20032;-71
2021/09/10 08:58:04;;;;;;;39.00;22.15;;;;;;;;;;5091280;28;20012;-71
2021/09/10 09:00:32;;;;;;;44.33;23.17;;;;;;;;;;5093554;28;20023;-72
2021/09/10 09:03:02;;;;;;;39.17;23.23;;;;;;;;;;5093521;28;20031;-71
2021/09/10 09:05:29;;;;;;;38.55;23.35;;;;;;;;;;5093241;28;20024;-71
2021/09/10 09:08:07;;;;;;;30.00;19.95;;;;;;;;;;5090065;28;20547;-71
2021/09/10 09:11:11;;;;;;;28.17;17.95;;;;;;;;;;5092835;28;20107;-72
2021/09/10 09:13:38;;;;;;;27.15;16.98;;;;;;;;;;5010560;28;20041;-71
2021/09/10 09:16:15;;;;;;;25.20;17.30;;;;;;;;;;5066160;28;20052;-71
2021/09/10 09:18:41;;;;;;;20.52;14.88;;;;;;;;;;5093022;28;20529;-70
2021/09/10 09:21:08;;;;;;;28.80;17.20;;;;;;;;;;5092899;28;20019;-71
2021/09/10 09:23:34;;;;;;;25.10;17.25;;;;;;;;;;5092483;28;20031;-70
2021/09/10 09:26:00;;;;;;;26.15;17.08;;;;;;;;;;5089630;28;20024;-72
2021/09/10 09:28:31;;;;;;;24.48;17.08;;;;;;;;;;5092925;28;20106;-71
2021/09/10 09:31:01;;;;;;;24.95;16.40;;;;;;;;;;5092268;28;20497;-71
2021/09/10 09:33:31;;;;;;;29.05;18.48;;;;;;;;;;5081038;28;20047;-72
2021/09/10 09:35:58;;;;;;;22.27;15.25;;;;;;;;;;5098720;28;20040;-72
2021/09/10 09:38:26;;;;;;;24.83;17.00;;;;;;;;;;5092676;28;20090;-71
2021/09/10 09:40:54;;;;;;;23.80;16.23;;;;;;;;;;5092339;28;20466;-71
2021/09/10 09:43:21;;;;;;;23.95;15.63;;;;;;;;;;5092809;28;20282;-71
2021/09/10 09:45:48;;;;;;;23.80;14.43;;;;;;;;;;5089630;28;20138;-71
2021/09/10 09:48:15;;;;;;;22.83;14.23;;;;;;;;;;5091525;28;20028;-72
2021/09/10 09:50:42;;;;;;;20.60;13.95;;;;;;;;;;5092221;28;20043;-71
2021/09/10 09:53:08;;;;;;;19.00;13.07;;;;;;;;;;5092424;28;20150;-72
2021/09/10 09:55:34;;;;;;;21.77;14.15;;;;;;;;;;5091640;28;20025;-72
2021/09/10 09:58:03;;;;;;;22.20;14.50;;;;;;;;;;5089227;28;20020;-71
2021/09/10 10:00:30;;;;;;;25.63;15.73;;;;;;;;;;5091566;28;20012;-72
2021/09/10 10:02:56;;;;;;;21.80;15.23;;;;;;;;;;5091915;28;20012;-71
2021/09/10 10:05:22;;;;;;;23.83;16.95;;;;;;;;;;5091905;28;20028;-72
2021/09/10 10:07:53;;;;;;;28.63;17.65;;;;;;;;;;5089438;28;20077;-71
2021/09/10 10:10:25;;;;;;;26.40;16.43;;;;;;;;;;5092302;28;20024;-71
2021/09/10 10:12:50;;;;;;;;;;;;;;;;;;5092114;28;20036;-71
2021/09/10 10:15:24;;;;;;;28.30;17.73;;;;;;;;;;5092436;28;20381;-70
2021/09/10 10:17:51;;;;;;;27.60;18.63;;;;;;;;;;5089142;28;20035;-72
2021/09/10 10:20:35;;;;;;;33.67;20.73;;;;;;;;;;5091808;28;20016;-72
2021/09/10 10:23:01;;;;;;;37.90;23.45;;;;;;;;;;5091492;28;20031;-72
2021/09/10 10:25:28;;;;;;;32.33;22.65;;;;;;;;;;5085566;28;20028;-72
2021/09/10 10:27:54;;;;;;;34.78;23.95;;;;;;;;;;5089103;28;20032;-72
2021/09/10 10:30:25;;;;;;;41.10;25.92;;;;;;;;;;5091506;28;20020;-72
2021/09/10 10:32:52;;;;;;;48.97;30.80;;;;;;;;;;5085196;28;20028;-71
2021/09/10 10:35:30;;;;;;;50.13;32.63;;;;;;;;;;5095459;28;20048;-72
2021/09/10 10:38:02;;;;;;;49.67;32.22;;;;;;;;;;5109206;28;20035;-72
2021/09/10 10:40:35;;;;;;;52.00;33.10;;;;;;;;;;5111166;28;20107;-72
2021/09/10 10:43:03;;;;;;;48.92;29.65;;;;;;;;;;5103146;28;20024;-72
2021/09/10 10:45:55;;;;;;;47.05;30.55;;;;;;;;;;5089761;28;20032;-72
2021/09/10 10:48:33;;;;;;;46.15;28.80;;;;;;;;;;5088180;28;20032;-72
2021/09/10 10:51:03;;;;;;;49.22;31.65;;;;;;;;;;5089396;28;20103;-72
2021/09/10 10:53:47;;;;;;;58.80;32.92;;;;;;;;;;5091421;28;20085;-72
2021/09/10 10:56:29;;;;;;;47.25;28.35;;;;;;;;;;5088598;28;20024;-71
2021/09/10 11:01:58;;;;;;;49.67;26.95;;;;;;;;;;5090972;28;20043;-72
2021/09/10 11:04:25;;;;;;;35.78;23.08;;;;;;;;;;5090836;28;20048;-74
2021/09/10 11:06:54;;;;;;;27.38;18.52;;;;;;;;;;5083782;28;20536;-71
2021/09/10 11:09:20;;;;;;;25.67;17.55;;;;;;;;;;5077863;28;20498;-72
2021/09/10 11:11:51;;;;;;;21.90;15.70;;;;;;;;;;5090546;28;20497;-72
2021/09/10 11:14:17;;;;;;;24.52;16.73;;;;;;;;;;5091187;28;20024;-71
2021/09/10 11:16:43;;;;;;;24.05;14.85;;;;;;;;;;5087915;28;20031;-71
2021/09/10 11:19:09;;;;;;;22.60;15.00;;;;;;;;;;5084426;28;20066;-72
2021/09/10 11:21:35;;;;;;;21.95;15.30;;;;;;;;;;5083037;28;20031;-72
2021/09/10 11:24:07;;;;;;;26.70;16.52;;;;;;;;;;5083429;28;20023;-72
2021/09/10 11:26:34;;;;;;;21.25;15.45;;;;;;;;;;5088542;28;20035;-72
2021/09/10 11:29:07;;;;;;;19.83;14.68;;;;;;;;;;5090994;28;20024;-72
2021/09/10 11:31:33;;;;;;;21.63;14.95;;;;;;;;;;5090863;28;20478;-72
2021/09/10 11:33:59;;;;;;;20.73;15.48;;;;;;;;;;5090416;28;20027;-72
2021/09/10 11:36:25;;;;;;;23.58;15.85;;;;;;;;;;5088029;28;20058;-72
2021/09/10 11:38:59;;;;;;;20.58;14.65;;;;;;;;;;5090687;28;20096;-72
2021/09/10 11:41:25;;;;;;;23.63;15.93;;;;;;;;;;5089592;28;20492;-72
2021/09/10 11:43:51;;;;;;;18.73;13.77;;;;;;;;;;5097821;28;20413;-72
2021/09/10 11:46:20;;;;;;;20.38;14.68;;;;;;;;;;5108196;28;20453;-72
2021/09/10 11:48:48;;;;;;;22.27;15.63;;;;;;;;;;5105339;28;20052;-72
2021/09/10 11:51:15;;;;;;;24.05;15.82;;;;;;;;;;5090739;28;20031;-72
2021/09/10 11:53:47;;;;;;;24.15;15.55;;;;;;;;;;5089250;28;20028;-72
2021/09/10 11:56:18;;;;;;;22.27;16.02;;;;;;;;;;5087733;28;20051;-71
2021/09/10 11:58:47;;;;;;;24.98;16.77;;;;;;;;;;5075756;28;20017;-72
2021/09/10 12:01:23;;;;;;;19.08;14.48;;;;;;;;;;5070410;28;20110;-72
2021/09/10 12:03:51;;;;;;;22.42;15.98;;;;;;;;;;5068968;28;20142;-72
2021/09/10 12:06:21;;;;;;;20.08;15.02;;;;;;;;;;5067986;28;20099;-72
2021/09/10 12:09:06;;;;;;;20.52;15.85;;;;;;;;;;5089416;28;20020;-72
2021/09/10 12:11:32;;;;;;;20.17;14.82;;;;;;;;;;5089773;28;20436;-72
2021/09/10 12:13:58;;;;;;;24.02;13.88;;;;;;;;;;5089856;28;20076;-71
2021/09/10 12:16:24;;;;;;;20.65;16.58;;;;;;;;;;5087404;28;20107;-72
2021/09/10 12:19:00;;;;;;;27.20;20.02;;;;;;;;;;5094448;28;20012;-72
2021/09/10 12:21:33;;;;;;;25.45;18.60;;;;;;;;;;5086153;28;20027;-72
2021/09/10 12:24:08;;;;;;;28.75;18.80;;;;;;;;;;5087105;28;20020;-72
2021/09/10 12:26:51;;;;;;;31.50;19.88;;;;;;;;;;5089804;28;20047;-72
2021/09/10 12:29:22;;;;;;;33.88;20.02;;;;;;;;;;5073914;28;20032;-71
2021/09/10 12:31:48;;;;;;;29.42;20.33;;;;;;;;;;5073885;28;20510;-72
2021/09/10 12:34:15;;;;;;;36.03;20.10;;;;;;;;;;5076636;28;20066;-72
2021/09/10 12:36:41;;;;;;;32.47;19.40;;;;;;;;;;5091229;28;20020;-70
2021/09/10 12:39:07;;;;;;;37.55;18.83;;;;;;;;;;5092675;28;20020;-72
2021/09/10 12:41:33;;;;;;;34.08;19.38;;;;;;;;;;5094026;28;20017;-71
2021/09/10 12:44:00;;;;;;;28.50;18.45;;;;;;;;;;5092323;28;20039;-72
2021/09/10 12:46:26;;;;;;;31.23;19.00;;;;;;;;;;5091273;28;20081;-73
2021/09/10 12:48:52;;;;;;;25.98;16.80;;;;;;;;;;5090918;28;20119;-73
2021/09/10 12:51:18;;;;;;;28.58;17.33;;;;;;;;;;5092071;28;20062;-72
2021/09/10 12:53:44;;;;;;;30.67;17.85;;;;;;;;;;5091950;28;20032;-72
2021/09/10 12:56:11;;;;;;;30.50;17.25;;;;;;;;;;5090784;28;20027;-73
2021/09/10 12:58:37;;;;;;;31.58;18.73;;;;;;;;;;5092429;28;20075;-72
2021/09/10 13:01:03;;;;;;;29.08;17.25;;;;;;;;;;5090380;28;20073;-72
2021/09/10 13:03:29;;;;;;;26.83;15.60;;;;;;;;;;5093803;28;20004;-72
2021/09/10 13:05:56;;;;;;;20.25;13.93;;;;;;;;;;5082791;28;20017;-72
2021/09/10 13:08:22;;;;;;;24.90;14.70;;;;;;;;;;5088767;28;20016;-72
2021/09/10 13:10:48;;;;;;;23.85;14.68;;;;;;;;;;5092940;28;20115;-71
2021/09/10 13:13:15;;;;;;;15.30;12.07;;;;;;;;;;5092116;28;20103;-72
2021/09/10 13:15:41;;;;;;;21.55;13.52;;;;;;;;;;5092392;28;20516;-72
2021/09/10 13:18:07;;;;;;;20.42;13.45;;;;;;;;;;5090981;28;20016;-72
2021/09/10 13:20:33;;;;;;;18.33;12.07;;;;;;;;;;5091743;28;20101;-72
2021/09/10 13:22:59;;;;;;;17.02;11.77;;;;;;;;;;5090307;28;20027;-72
2021/09/10 13:25:25;;;;;;;17.42;11.00;;;;;;;;;;5092159;28;20027;-72
2021/09/10 13:27:51;;;;;;;19.60;10.55;;;;;;;;;;5089510;28;20031;-71
2021/09/10 13:30:21;;;;;;;18.42;11.10;;;;;;;;;;5092098;28;20024;-72
2021/09/10 13:32:48;;;;;;;20.95;12.02;;;;;;;;;;5090959;28;20281;-72
2021/09/10 13:35:15;;;;;;;18.13;12.63;;;;;;;;;;5089998;28;20044;-72
2021/09/10 13:37:41;;;;;;;19.02;10.48;;;;;;;;;;5088502;28;20200;-72
2021/09/10 13:40:09;;;;;;;20.25;10.60;;;;;;;;;;5092690;28;20027;-71
2021/09/10 13:42:35;;;;;;;18.40;10.73;;;;;;;;;;5084392;28;20040;-72
2021/09/10 13:45:01;;;;;;;16.00;10.13;;;;;;;;;;5091640;28;20082;-72
2021/09/10 13:47:27;;;;;;;17.33;11.35;;;;;;;;;;5085954;28;20505;-72
2021/09/10 13:49:53;;;;;;;19.33;9.95;;;;;;;;;;5082057;28;20028;-73
2021/09/10 13:52:19;;;;;;;17.48;10.60;;;;;;;;;;5085910;28;20028;-72
2021/09/10 13:54:46;;;;;;;17.45;10.90;;;;;;;;;;5091480;28;20023;-72
2021/09/10 13:57:12;;;;;;;18.80;10.38;;;;;;;;;;5084187;28;20016;-74
2021/09/10 13:59:38;;;;;;;17.70;10.05;;;;;;;;;;5078793;28;20107;-72
2021/09/10 14:02:04;;;;;;;16.42;9.15;;;;;;;;;;5070186;28;20479;-72
2021/09/10 14:04:30;;;;;;;15.85;8.50;;;;;;;;;;5068742;28;20516;-72
2021/09/10 14:06:56;;;;;;;16.23;9.13;;;;;;;;;;5065484;28;20017;-73
2021/09/10 14:09:24;;;;;;;14.48;9.40;;;;;;;;;;5087124;28;20016;-72
2021/09/10 14:11:50;;;;;;;16.77;8.27;;;;;;;;;;5077123;28;20052;-71
2021/09/10 14:14:16;;;;;;;16.90;9.65;;;;;;;;;;5070123;28;20036;-72
2021/09/10 14:16:42;;;;;;;14.32;8.90;;;;;;;;;;5072451;28;20024;-73
2021/09/10 14:19:08;;;;;;;20.75;7.90;;;;;;;;;;5073905;28;20020;-71
2021/09/10 14:21:35;;;;;;;12.80;9.02;;;;;;;;;;5073214;28;20028;-72